Terminal Aerodrome Forecast
Issued by NWS Mt. Holly, NJ

Home | Current Version | Previous Version | Text Only | Print | Product List | Glossary On
Versions: 1 2 3 4 5 6 7 8 9 10 11 12 13 14 15 16 17 18 19 20
000
FTUS41 KPHI 282300
TAFACY
TAF
KACY 282322Z 2900/2924 28010G18KT P6SM SCT050
     FM290200 30010KT P6SM SCT050 BKN100
     FM290600 31006KT P6SM SCT050
     FM291700 15008KT P6SM SCT050=

USA.gov is the U.S. government's official web portal to all federal, state and local government web resources and services.